San Antonio, TX (78221)

11:06 PM CDT on September 14, 2014 (GMT -0500)
Former Lone Star Brewery | Change Station
CLOSE
Current Station
Personal Weather Station
Location: San Antonio, TX
Elevation: 625 ft
Nearby Weather Stations

Elev 625 ft 29.40 °N, 98.49 °W | Updated 6 minutes ago

Clear
Clear
74.2 °F
Feels Like 75 °F
N
2.0
Wind Variable Wind from East
Gusts 12.0 mph

Today
High -- | Low -- °F
--% Chance of Precip.
Yesterday
High -- | Low -- °F
Precip. -- in
7:18 AM 7:40 PM
Waning Gibbous, 59% visible
Pressure 30.10 in
Visibility 10.0 miles
Clouds Clear
Heat Index 75 °F
Dew Point 67 °F
Humidity 78%
Rainfall 0.00 in
Snow Depth Not available.
UV 0 out of 12
Pollen 9.20 out of 12
Ozone Good
PM2.5 Moderate
Flu Activity Not available.
METAR KSSF 150353Z AUTO 07004KT 10SM CLR 23/18 A3012 RMK AO2 SLP192 T02330183

More Conditions Fewer Conditions

Pressure 30.10 in
Visibility 10.0 miles
Clouds Clear
Heat Index 75 °F
Dew Point 67 °F
Humidity 78%
Rainfall 0.00 in
Snow Depth Not available.
UV 0 out of 12
Pollen 9.20 out of 12
Ozone Good
PM2.5 Moderate
Flu Activity Not available.
METAR KSSF 150353Z AUTO 07004KT 10SM CLR 23/18 A3012 RMK AO2 SLP192 T02330183

More Conditions Fewer Conditions

10-Day Weather Forecast

Almanac

Astronomy

Sep. 14, 2014 Rise Set
Actual Time 7:18 AM CDT 7:40 PM CDT
Civil Twilight 6:54 AM CDT 8:04 PM CDT
Nautical Twilight 6:26 AM CDT 8:31 PM CDT
Astronomical Twilight 5:58 AM CDT 9:00 PM CDT
Moon No Moon Rise 12:59 PM CDT (9/14)
Length of Visible Light 13h 09m
Length of Day
12h 21m
Tomorrow will be 1m 43s shorter.
Waning Gibbous, 59% of the Moon is Illuminated
Sep 15
Waning Gibbous
Sep 15
Last Quarter
Sep 24
New
Oct 1
First Quarter
Oct 8
Full

Today's Extremes

State Highs State Lows

Community

WunderPhotos

Upload Photos

1,753,398 photos uploaded!

Nearby

Air Quality

  Air Quality AQ Index Pollutant
Yesterday Good
OZONE
Yesterday Good
PM2.5
Current Moderate
PM2.5
Current Good
OZONE
Sunday Moderate
OZONE
Sunday Good
PM10
Monday Moderate
OZONE
Monday Good
PM10
Tuesday Moderate
OZONE
Tuesday Good
PM10

Snow Depth

Station Depth Elevation
No new snow has been reported.

Earthquake Activity

City Distance Mag. Time & Date
No recent earthquake activity has been reported nearby.
Minimum magnitude displayed is 2.5.

Coastal Water Temperatures

Place Temperature
No Stations Reporting

Nearby Weather Stations